sensor_id;sensor_type;location;lat;lon;timestamp;P1;durP1;ratioP1;P2;durP2;ratioP2
33421;SDS011;19763;55.798;37.782;2023-03-23T00:01:07;7.35;;;3.30;;
33421;SDS011;19763;55.798;37.782;2023-03-23T00:03:38;4.22;;;3.10;;
33421;SDS011;19763;55.798;37.782;2023-03-23T00:06:05;3.83;;;3.35;;
33421;SDS011;19763;55.798;37.782;2023-03-23T00:08:31;3.08;;;2.65;;
33421;SDS011;19763;55.798;37.782;2023-03-23T00:10:58;3.92;;;3.40;;
33421;SDS011;19763;55.798;37.782;2023-03-23T00:13:26;4.60;;;3.28;;
33421;SDS011;19763;55.798;37.782;2023-03-23T00:15:54;3.15;;;2.78;;
33421;SDS011;19763;55.798;37.782;2023-03-23T00:18:22;3.20;;;2.90;;
33421;SDS011;19763;55.798;37.782;2023-03-23T00:20:52;4.10;;;2.97;;
33421;SDS011;19763;55.798;37.782;2023-03-23T00:23:20;3.20;;;2.90;;
33421;SDS011;19763;55.798;37.782;2023-03-23T00:25:54;4.20;;;3.47;;
33421;SDS011;19763;55.798;37.782;2023-03-23T00:28:24;3.20;;;2.90;;
33421;SDS011;19763;55.798;37.782;2023-03-23T00:30:57;3.42;;;3.13;;
33421;SDS011;19763;55.798;37.782;2023-03-23T00:33:24;3.00;;;2.70;;
33421;SDS011;19763;55.798;37.782;2023-03-23T00:35:52;3.05;;;2.65;;
33421;SDS011;19763;55.798;37.782;2023-03-23T00:38:20;5.32;;;2.90;;
33421;SDS011;19763;55.798;37.782;2023-03-23T00:40:47;4.20;;;3.05;;
33421;SDS011;19763;55.798;37.782;2023-03-23T00:43:13;3.53;;;2.97;;
33421;SDS011;19763;55.798;37.782;2023-03-23T00:45:40;6.30;;;3.33;;
33421;SDS011;19763;55.798;37.782;2023-03-23T00:48:06;3.42;;;3.13;;
33421;SDS011;19763;55.798;37.782;2023-03-23T00:50:32;4.43;;;3.15;;
33421;SDS011;19763;55.798;37.782;2023-03-23T00:52:57;2.90;;;2.65;;
33421;SDS011;19763;55.798;37.782;2023-03-23T00:55:24;3.25;;;2.95;;
33421;SDS011;19763;55.798;37.782;2023-03-23T00:57:50;3.30;;;3.00;;
33421;SDS011;19763;55.798;37.782;2023-03-23T01:00:17;4.70;;;3.20;;
33421;SDS011;19763;55.798;37.782;2023-03-23T01:02:44;4.18;;;2.80;;
33421;SDS011;19763;55.798;37.782;2023-03-23T01:05:10;4.28;;;3.22;;
33421;SDS011;19763;55.798;37.782;2023-03-23T01:07:36;3.85;;;3.20;;
33421;SDS011;19763;55.798;37.782;2023-03-23T01:10:03;3.17;;;2.95;;
33421;SDS011;19763;55.798;37.782;2023-03-23T01:12:29;3.65;;;3.10;;
33421;SDS011;19763;55.798;37.782;2023-03-23T01:14:55;3.70;;;2.97;;
33421;SDS011;19763;55.798;37.782;2023-03-23T01:17:21;3.60;;;3.30;;
33421;SDS011;19763;55.798;37.782;2023-03-23T01:19:46;3.78;;;3.10;;
33421;SDS011;19763;55.798;37.782;2023-03-23T01:22:12;4.70;;;3.03;;
33421;SDS011;19763;55.798;37.782;2023-03-23T01:24:38;3.42;;;3.10;;
33421;SDS011;19763;55.798;37.782;2023-03-23T01:27:03;3.22;;;2.92;;
33421;SDS011;19763;55.798;37.782;2023-03-23T01:29:34;3.70;;;3.20;;
33421;SDS011;19763;55.798;37.782;2023-03-23T01:32:01;4.25;;;3.22;;
33421;SDS011;19763;55.798;37.782;2023-03-23T01:34:27;4.13;;;3.40;;
33421;SDS011;19763;55.798;37.782;2023-03-23T01:36:53;5.18;;;3.28;;
33421;SDS011;19763;55.798;37.782;2023-03-23T01:39:18;3.28;;;2.97;;
33421;SDS011;19763;55.798;37.782;2023-03-23T01:41:44;3.58;;;3.28;;
33421;SDS011;19763;55.798;37.782;2023-03-23T01:46:41;4.85;;;3.25;;
33421;SDS011;19763;55.798;37.782;2023-03-23T01:49:09;4.45;;;3.60;;
33421;SDS011;19763;55.798;37.782;2023-03-23T01:51:42;4.20;;;3.22;;
33421;SDS011;19763;55.798;37.782;2023-03-23T01:54:13;4.18;;;3.75;;
33421;SDS011;19763;55.798;37.782;2023-03-23T01:56:47;3.95;;;3.33;;
33421;SDS011;19763;55.798;37.782;2023-03-23T01:59:19;5.65;;;3.55;;
33421;SDS011;19763;55.798;37.782;2023-03-23T02:01:47;5.53;;;3.58;;
33421;SDS011;19763;55.798;37.782;2023-03-23T02:04:13;3.97;;;3.58;;
33421;SDS011;19763;55.798;37.782;2023-03-23T02:06:41;4.63;;;3.90;;
33421;SDS011;19763;55.798;37.782;2023-03-23T02:09:09;5.18;;;3.63;;
33421;SDS011;19763;55.798;37.782;2023-03-23T02:11:38;4.10;;;3.70;;
33421;SDS011;19763;55.798;37.782;2023-03-23T02:14:04;3.83;;;3.22;;
33421;SDS011;19763;55.798;37.782;2023-03-23T02:24:30;5.88;;;3.65;;
33421;SDS011;19763;55.798;37.782;2023-03-23T02:32:46;5.47;;;4.00;;
33421;SDS011;19763;55.798;37.782;2023-03-23T02:35:28;5.03;;;4.13;;
33421;SDS011;19763;55.798;37.782;2023-03-23T02:37:59;4.30;;;3.85;;
33421;SDS011;19763;55.798;37.782;2023-03-23T02:41:03;6.10;;;3.97;;
33421;SDS011;19763;55.798;37.782;2023-03-23T02:43:24;4.25;;;3.83;;
33421;SDS011;19763;55.798;37.782;2023-03-23T02:45:52;7.38;;;3.80;;
33421;SDS011;19763;55.798;37.782;2023-03-23T02:48:19;5.53;;;3.92;;
33421;SDS011;19763;55.798;37.782;2023-03-23T02:50:50;4.88;;;3.80;;
33421;SDS011;19763;55.798;37.782;2023-03-23T02:53:18;6.57;;;4.43;;
33421;SDS011;19763;55.798;37.782;2023-03-23T02:55:48;4.88;;;3.75;;
33421;SDS011;19763;55.798;37.782;2023-03-23T02:58:18;4.38;;;3.67;;
33421;SDS011;19763;55.798;37.782;2023-03-23T03:00:44;6.97;;;4.70;;
33421;SDS011;19763;55.798;37.782;2023-03-23T03:03:15;4.95;;;3.95;;
33421;SDS011;19763;55.798;37.782;2023-03-23T03:08:36;4.88;;;3.95;;
33421;SDS011;19763;55.798;37.782;2023-03-23T03:11:14;5.05;;;4.10;;
33421;SDS011;19763;55.798;37.782;2023-03-23T03:13:49;6.00;;;3.92;;
33421;SDS011;19763;55.798;37.782;2023-03-23T03:22:06;4.95;;;3.95;;
33421;SDS011;19763;55.798;37.782;2023-03-23T03:24:33;5.72;;;4.15;;
33421;SDS011;19763;55.798;37.782;2023-03-23T03:26:59;5.95;;;3.95;;
33421;SDS011;19763;55.798;37.782;2023-03-23T03:29:30;6.68;;;3.80;;
33421;SDS011;19763;55.798;37.782;2023-03-23T03:31:59;6.50;;;4.15;;
33421;SDS011;19763;55.798;37.782;2023-03-23T03:34:29;4.75;;;3.40;;
33421;SDS011;19763;55.798;37.782;2023-03-23T03:36:57;6.57;;;4.45;;
33421;SDS011;19763;55.798;37.782;2023-03-23T03:39:24;6.50;;;3.63;;
33421;SDS011;19763;55.798;37.782;2023-03-23T03:41:51;4.35;;;3.80;;
33421;SDS011;19763;55.798;37.782;2023-03-23T03:44:17;6.32;;;4.18;;
33421;SDS011;19763;55.798;37.782;2023-03-23T03:46:42;7.20;;;3.90;;
33421;SDS011;19763;55.798;37.782;2023-03-23T03:49:09;5.07;;;3.67;;
33421;SDS011;19763;55.798;37.782;2023-03-23T03:51:37;5.15;;;3.92;;
33421;SDS011;19763;55.798;37.782;2023-03-23T03:54:04;6.07;;;3.90;;
33421;SDS011;19763;55.798;37.782;2023-03-23T03:56:30;5.07;;;4.00;;
33421;SDS011;19763;55.798;37.782;2023-03-23T03:58:56;4.20;;;3.80;;
33421;SDS011;19763;55.798;37.782;2023-03-23T04:01:22;6.15;;;4.00;;
33421;SDS011;19763;55.798;37.782;2023-03-23T04:03:48;5.45;;;3.85;;
33421;SDS011;19763;55.798;37.782;2023-03-23T04:06:14;4.47;;;3.70;;
33421;SDS011;19763;55.798;37.782;2023-03-23T04:08:41;6.22;;;3.78;;
33421;SDS011;19763;55.798;37.782;2023-03-23T04:11:08;5.18;;;4.07;;
33421;SDS011;19763;55.798;37.782;2023-03-23T04:13:35;6.25;;;4.57;;
33421;SDS011;19763;55.798;37.782;2023-03-23T04:16:01;5.57;;;4.30;;
33421;SDS011;19763;55.798;37.782;2023-03-23T04:18:27;5.13;;;4.18;;
33421;SDS011;19763;55.798;37.782;2023-03-23T04:20:54;5.07;;;4.20;;
33421;SDS011;19763;55.798;37.782;2023-03-23T04:23:24;6.55;;;3.95;;
33421;SDS011;19763;55.798;37.782;2023-03-23T04:25:50;5.22;;;4.05;;
33421;SDS011;19763;55.798;37.782;2023-03-23T04:28:18;6.82;;;3.97;;
33421;SDS011;19763;55.798;37.782;2023-03-23T04:30:48;6.13;;;4.90;;
33421;SDS011;19763;55.798;37.782;2023-03-23T04:33:27;7.20;;;5.15;;
33421;SDS011;19763;55.798;37.782;2023-03-23T04:35:55;6.38;;;4.53;;
33421;SDS011;19763;55.798;37.782;2023-03-23T04:38:26;11.88;;;5.35;;
33421;SDS011;19763;55.798;37.782;2023-03-23T04:40:52;6.47;;;5.32;;
33421;SDS011;19763;55.798;37.782;2023-03-23T04:43:22;8.63;;;5.03;;
33421;SDS011;19763;55.798;37.782;2023-03-23T04:45:52;5.97;;;5.03;;
33421;SDS011;19763;55.798;37.782;2023-03-23T04:50:48;10.50;;;7.75;;
33421;SDS011;19763;55.798;37.782;2023-03-23T04:53:15;7.00;;;5.45;;
33421;SDS011;19763;55.798;37.782;2023-03-23T04:55:42;9.38;;;5.50;;
33421;SDS011;19763;55.798;37.782;2023-03-23T04:58:09;9.73;;;6.35;;
33421;SDS011;19763;55.798;37.782;2023-03-23T05:00:37;9.00;;;5.85;;
33421;SDS011;19763;55.798;37.782;2023-03-23T05:03:03;9.27;;;6.18;;
33421;SDS011;19763;55.798;37.782;2023-03-23T05:05:29;12.50;;;5.95;;
33421;SDS011;19763;55.798;37.782;2023-03-23T05:07:55;9.45;;;6.88;;
33421;SDS011;19763;55.798;37.782;2023-03-23T05:10:22;8.40;;;6.40;;
33421;SDS011;19763;55.798;37.782;2023-03-23T05:12:47;9.10;;;6.00;;
33421;SDS011;19763;55.798;37.782;2023-03-23T05:15:14;10.25;;;6.43;;
33421;SDS011;19763;55.798;37.782;2023-03-23T05:17:41;9.05;;;6.13;;
33421;SDS011;19763;55.798;37.782;2023-03-23T05:20:12;9.85;;;6.43;;
33421;SDS011;19763;55.798;37.782;2023-03-23T05:22:40;10.10;;;7.07;;
33421;SDS011;19763;55.798;37.782;2023-03-23T05:25:07;9.77;;;6.72;;
33421;SDS011;19763;55.798;37.782;2023-03-23T05:27:37;12.23;;;6.80;;
33421;SDS011;19763;55.798;37.782;2023-03-23T05:30:04;13.18;;;7.03;;
33421;SDS011;19763;55.798;37.782;2023-03-23T05:32:31;11.00;;;7.25;;
33421;SDS011;19763;55.798;37.782;2023-03-23T05:34:57;9.60;;;6.75;;
33421;SDS011;19763;55.798;37.782;2023-03-23T05:37:24;9.68;;;7.43;;
33421;SDS011;19763;55.798;37.782;2023-03-23T05:39:52;9.05;;;7.25;;
33421;SDS011;19763;55.798;37.782;2023-03-23T05:42:20;9.10;;;7.22;;
33421;SDS011;19763;55.798;37.782;2023-03-23T05:44:49;10.93;;;7.15;;
33421;SDS011;19763;55.798;37.782;2023-03-23T05:47:15;9.60;;;6.90;;
33421;SDS011;19763;55.798;37.782;2023-03-23T05:49:42;10.73;;;7.03;;
33421;SDS011;19763;55.798;37.782;2023-03-23T05:52:07;10.57;;;6.70;;
33421;SDS011;19763;55.798;37.782;2023-03-23T05:54:33;11.23;;;7.05;;
33421;SDS011;19763;55.798;37.782;2023-03-23T05:56:59;10.35;;;6.90;;
33421;SDS011;19763;55.798;37.782;2023-03-23T05:59:25;8.90;;;7.05;;
33421;SDS011;19763;55.798;37.782;2023-03-23T06:01:51;9.05;;;7.15;;
33421;SDS011;19763;55.798;37.782;2023-03-23T06:04:19;6.95;;;6.25;;
33421;SDS011;19763;55.798;37.782;2023-03-23T06:06:45;9.82;;;7.38;;
33421;SDS011;19763;55.798;37.782;2023-03-23T06:09:11;11.05;;;7.00;;
33421;SDS011;19763;55.798;37.782;2023-03-23T06:11:37;11.25;;;7.65;;
33421;SDS011;19763;55.798;37.782;2023-03-23T06:14:03;9.15;;;6.80;;
33421;SDS011;19763;55.798;37.782;2023-03-23T06:16:28;8.38;;;7.20;;
33421;SDS011;19763;55.798;37.782;2023-03-23T06:18:54;8.00;;;6.65;;
33421;SDS011;19763;55.798;37.782;2023-03-23T06:21:21;11.50;;;7.28;;
33421;SDS011;19763;55.798;37.782;2023-03-23T06:23:47;12.88;;;6.90;;
33421;SDS011;19763;55.798;37.782;2023-03-23T06:26:13;9.82;;;7.10;;
33421;SDS011;19763;55.798;37.782;2023-03-23T06:28:42;13.48;;;7.55;;
33421;SDS011;19763;55.798;37.782;2023-03-23T06:31:07;12.25;;;7.22;;
33421;SDS011;19763;55.798;37.782;2023-03-23T06:33:35;12.60;;;7.07;;
33421;SDS011;19763;55.798;37.782;2023-03-23T06:36:02;9.15;;;7.70;;
33421;SDS011;19763;55.798;37.782;2023-03-23T06:38:28;10.00;;;6.88;;
33421;SDS011;19763;55.798;37.782;2023-03-23T06:40:54;10.40;;;8.13;;
33421;SDS011;19763;55.798;37.782;2023-03-23T06:43:20;12.13;;;7.57;;
33421;SDS011;19763;55.798;37.782;2023-03-23T06:45:46;11.13;;;7.75;;
33421;SDS011;19763;55.798;37.782;2023-03-23T06:48:12;10.20;;;7.90;;
33421;SDS011;19763;55.798;37.782;2023-03-23T06:50:38;10.00;;;7.82;;
33421;SDS011;19763;55.798;37.782;2023-03-23T06:53:08;12.30;;;8.00;;
33421;SDS011;19763;55.798;37.782;2023-03-23T06:55:33;13.13;;;7.70;;
33421;SDS011;19763;55.798;37.782;2023-03-23T06:57:59;9.00;;;7.43;;
33421;SDS011;19763;55.798;37.782;2023-03-23T07:00:26;12.93;;;7.82;;
33421;SDS011;19763;55.798;37.782;2023-03-23T07:02:52;14.48;;;7.88;;
33421;SDS011;19763;55.798;37.782;2023-03-23T07:05:18;9.75;;;7.20;;
33421;SDS011;19763;55.798;37.782;2023-03-23T07:07:44;9.32;;;7.60;;
33421;SDS011;19763;55.798;37.782;2023-03-23T07:10:10;12.35;;;8.02;;
33421;SDS011;19763;55.798;37.782;2023-03-23T07:12:36;14.88;;;8.15;;
33421;SDS011;19763;55.798;37.782;2023-03-23T07:15:03;11.65;;;8.00;;
33421;SDS011;19763;55.798;37.782;2023-03-23T07:17:29;8.73;;;7.45;;
33421;SDS011;19763;55.798;37.782;2023-03-23T07:19:55;14.05;;;8.55;;
33421;SDS011;19763;55.798;37.782;2023-03-23T07:22:21;10.05;;;7.43;;
33421;SDS011;19763;55.798;37.782;2023-03-23T07:24:46;13.75;;;7.97;;
33421;SDS011;19763;55.798;37.782;2023-03-23T07:27:12;9.35;;;7.82;;
33421;SDS011;19763;55.798;37.782;2023-03-23T07:29:38;11.00;;;7.30;;
33421;SDS011;19763;55.798;37.782;2023-03-23T07:32:05;13.82;;;7.65;;
33421;SDS011;19763;55.798;37.782;2023-03-23T07:34:31;11.95;;;7.43;;
33421;SDS011;19763;55.798;37.782;2023-03-23T07:36:57;12.45;;;7.97;;
33421;SDS011;19763;55.798;37.782;2023-03-23T07:39:24;11.15;;;6.68;;
33421;SDS011;19763;55.798;37.782;2023-03-23T07:41:50;10.35;;;7.00;;
33421;SDS011;19763;55.798;37.782;2023-03-23T07:44:16;11.80;;;7.20;;
33421;SDS011;19763;55.798;37.782;2023-03-23T07:46:42;9.00;;;7.18;;
33421;SDS011;19763;55.798;37.782;2023-03-23T07:49:08;9.63;;;7.25;;
33421;SDS011;19763;55.798;37.782;2023-03-23T07:51:35;12.75;;;7.75;;
33421;SDS011;19763;55.798;37.782;2023-03-23T07:54:04;11.98;;;7.35;;
33421;SDS011;19763;55.798;37.782;2023-03-23T07:56:31;11.35;;;7.00;;
33421;SDS011;19763;55.798;37.782;2023-03-23T07:58:57;12.10;;;6.95;;
33421;SDS011;19763;55.798;37.782;2023-03-23T08:01:23;11.43;;;7.88;;
33421;SDS011;19763;55.798;37.782;2023-03-23T08:03:49;11.80;;;6.90;;
33421;SDS011;19763;55.798;37.782;2023-03-23T08:06:16;9.02;;;7.18;;
33421;SDS011;19763;55.798;37.782;2023-03-23T08:08:42;10.63;;;6.85;;
33421;SDS011;19763;55.798;37.782;2023-03-23T08:11:07;7.88;;;6.78;;
33421;SDS011;19763;55.798;37.782;2023-03-23T08:13:33;8.40;;;6.40;;
33421;SDS011;19763;55.798;37.782;2023-03-23T08:15:59;8.55;;;6.10;;
33421;SDS011;19763;55.798;37.782;2023-03-23T08:18:28;8.23;;;6.50;;
33421;SDS011;19763;55.798;37.782;2023-03-23T08:20:55;10.32;;;7.05;;
33421;SDS011;19763;55.798;37.782;2023-03-23T08:23:21;9.18;;;6.25;;
33421;SDS011;19763;55.798;37.782;2023-03-23T08:25:47;8.70;;;6.55;;
33421;SDS011;19763;55.798;37.782;2023-03-23T08:28:13;7.10;;;5.85;;
33421;SDS011;19763;55.798;37.782;2023-03-23T08:30:39;10.88;;;6.82;;
33421;SDS011;19763;55.798;37.782;2023-03-23T08:33:06;8.25;;;6.60;;
33421;SDS011;19763;55.798;37.782;2023-03-23T08:35:32;7.63;;;6.28;;
33421;SDS011;19763;55.798;37.782;2023-03-23T08:37:59;10.25;;;6.35;;
33421;SDS011;19763;55.798;37.782;2023-03-23T08:40:25;10.23;;;6.38;;
33421;SDS011;19763;55.798;37.782;2023-03-23T08:42:51;11.00;;;6.75;;
33421;SDS011;19763;55.798;37.782;2023-03-23T08:45:20;11.35;;;6.70;;
33421;SDS011;19763;55.798;37.782;2023-03-23T08:47:47;10.85;;;6.35;;
33421;SDS011;19763;55.798;37.782;2023-03-23T08:50:19;8.65;;;6.40;;
33421;SDS011;19763;55.798;37.782;2023-03-23T08:55:15;9.93;;;6.65;;
33421;SDS011;19763;55.798;37.782;2023-03-23T08:57:42;12.85;;;6.30;;
33421;SDS011;19763;55.798;37.782;2023-03-23T09:00:10;10.77;;;6.32;;
33421;SDS011;19763;55.798;37.782;2023-03-23T09:02:42;6.70;;;6.00;;
33421;SDS011;19763;55.798;37.782;2023-03-23T09:05:12;11.32;;;6.50;;
33421;SDS011;19763;55.798;37.782;2023-03-23T09:07:40;8.23;;;5.97;;
33421;SDS011;19763;55.798;37.782;2023-03-23T09:10:07;9.55;;;6.53;;
33421;SDS011;19763;55.798;37.782;2023-03-23T09:12:34;7.80;;;6.50;;
33421;SDS011;19763;55.798;37.782;2023-03-23T09:15:01;8.55;;;6.38;;
33421;SDS011;19763;55.798;37.782;2023-03-23T09:17:52;7.05;;;6.22;;
33421;SDS011;19763;55.798;37.782;2023-03-23T09:20:20;7.95;;;6.63;;
33421;SDS011;19763;55.798;37.782;2023-03-23T09:22:48;8.82;;;6.63;;
33421;SDS011;19763;55.798;37.782;2023-03-23T09:25:16;12.15;;;6.40;;
33421;SDS011;19763;55.798;37.782;2023-03-23T09:27:46;7.60;;;6.80;;
33421;SDS011;19763;55.798;37.782;2023-03-23T09:30:16;13.27;;;6.57;;
33421;SDS011;19763;55.798;37.782;2023-03-23T09:32:44;12.50;;;6.38;;
33421;SDS011;19763;55.798;37.782;2023-03-23T09:35:10;8.38;;;6.30;;
33421;SDS011;19763;55.798;37.782;2023-03-23T09:37:39;9.57;;;6.07;;
33421;SDS011;19763;55.798;37.782;2023-03-23T09:40:07;8.73;;;5.72;;
33421;SDS011;19763;55.798;37.782;2023-03-23T09:48:15;7.13;;;6.32;;
33421;SDS011;19763;55.798;37.782;2023-03-23T09:50:46;7.00;;;6.30;;
33421;SDS011;19763;55.798;37.782;2023-03-23T09:53:23;7.10;;;5.63;;
33421;SDS011;19763;55.798;37.782;2023-03-23T09:55:53;8.10;;;5.57;;
33421;SDS011;19763;55.798;37.782;2023-03-23T10:01:07;9.25;;;5.80;;
33421;SDS011;19763;55.798;37.782;2023-03-23T10:03:41;7.93;;;5.70;;
33421;SDS011;19763;55.798;37.782;2023-03-23T10:06:10;11.13;;;5.60;;
33421;SDS011;19763;55.798;37.782;2023-03-23T10:08:39;7.35;;;5.18;;
33421;SDS011;19763;55.798;37.782;2023-03-23T10:16:50;6.60;;;5.47;;
33421;SDS011;19763;55.798;37.782;2023-03-23T10:19:33;7.25;;;5.22;;
33421;SDS011;19763;55.798;37.782;2023-03-23T10:22:09;8.15;;;5.97;;
33421;SDS011;19763;55.798;37.782;2023-03-23T10:24:37;7.85;;;5.63;;
33421;SDS011;19763;55.798;37.782;2023-03-23T10:32:47;8.15;;;6.03;;
33421;SDS011;19763;55.798;37.782;2023-03-23T10:35:17;8.85;;;5.88;;
33421;SDS011;19763;55.798;37.782;2023-03-23T10:37:51;7.78;;;6.22;;
33421;SDS011;19763;55.798;37.782;2023-03-23T10:40:23;9.10;;;6.03;;
33421;SDS011;19763;55.798;37.782;2023-03-23T10:42:52;8.68;;;5.28;;
33421;SDS011;19763;55.798;37.782;2023-03-23T10:47:48;7.10;;;5.57;;
33421;SDS011;19763;55.798;37.782;2023-03-23T10:50:36;7.85;;;5.30;;
33421;SDS011;19763;55.798;37.782;2023-03-23T10:54:05;6.50;;;5.60;;
33421;SDS011;19763;55.798;37.782;2023-03-23T10:56:55;7.20;;;5.20;;
33421;SDS011;19763;55.798;37.782;2023-03-23T10:59:29;9.07;;;5.75;;
33421;SDS011;19763;55.798;37.782;2023-03-23T11:01:58;7.82;;;5.15;;
33421;SDS011;19763;55.798;37.782;2023-03-23T11:04:28;9.02;;;5.85;;
33421;SDS011;19763;55.798;37.782;2023-03-23T11:07:00;6.32;;;5.05;;
33421;SDS011;19763;55.798;37.782;2023-03-23T11:09:35;7.65;;;5.25;;
33421;SDS011;19763;55.798;37.782;2023-03-23T11:12:02;6.53;;;4.90;;
33421;SDS011;19763;55.798;37.782;2023-03-23T11:14:29;8.15;;;5.40;;
33421;SDS011;19763;55.798;37.782;2023-03-23T11:17:23;9.48;;;5.95;;
33421;SDS011;19763;55.798;37.782;2023-03-23T11:19:50;6.55;;;4.88;;
33421;SDS011;19763;55.798;37.782;2023-03-23T11:22:38;7.95;;;5.10;;
33421;SDS011;19763;55.798;37.782;2023-03-23T11:25:09;11.73;;;4.82;;
33421;SDS011;19763;55.798;37.782;2023-03-23T11:28:30;8.30;;;5.15;;
33421;SDS011;19763;55.798;37.782;2023-03-23T11:30:59;6.68;;;5.32;;
33421;SDS011;19763;55.798;37.782;2023-03-23T11:34:31;6.10;;;4.82;;
33421;SDS011;19763;55.798;37.782;2023-03-23T11:36:50;5.35;;;4.70;;
33421;SDS011;19763;55.798;37.782;2023-03-23T11:39:27;7.10;;;4.70;;
33421;SDS011;19763;55.798;37.782;2023-03-23T11:51:08;5.70;;;4.30;;
33421;SDS011;19763;55.798;37.782;2023-03-23T11:57:06;5.75;;;4.40;;
33421;SDS011;19763;55.798;37.782;2023-03-23T11:59:53;6.20;;;4.15;;
33421;SDS011;19763;55.798;37.782;2023-03-23T12:02:37;6.82;;;4.35;;
33421;SDS011;19763;55.798;37.782;2023-03-23T12:22:59;6.45;;;4.32;;
33421;SDS011;19763;55.798;37.782;2023-03-23T12:40:17;5.15;;;4.00;;
33421;SDS011;19763;55.798;37.782;2023-03-23T12:51:56;5.28;;;3.92;;
33421;SDS011;19763;55.798;37.782;2023-03-23T12:54:51;6.93;;;4.70;;
33421;SDS011;19763;55.798;37.782;2023-03-23T12:57:36;8.20;;;5.03;;
33421;SDS011;19763;55.798;37.782;2023-03-23T13:03:03;7.40;;;4.85;;
33421;SDS011;19763;55.798;37.782;2023-03-23T13:06:17;6.55;;;4.63;;
33421;SDS011;19763;55.798;37.782;2023-03-23T13:09:43;6.45;;;4.53;;
33421;SDS011;19763;55.798;37.782;2023-03-23T13:12:29;5.32;;;4.50;;
33421;SDS011;19763;55.798;37.782;2023-03-23T13:18:11;8.25;;;3.97;;
33421;SDS011;19763;55.798;37.782;2023-03-23T13:21:10;5.65;;;4.60;;
33421;SDS011;19763;55.798;37.782;2023-03-23T13:23:45;7.40;;;4.75;;
33421;SDS011;19763;55.798;37.782;2023-03-23T13:26:18;6.10;;;3.90;;
33421;SDS011;19763;55.798;37.782;2023-03-23T13:29:04;6.57;;;4.18;;
33421;SDS011;19763;55.798;37.782;2023-03-23T13:31:42;4.88;;;4.32;;
33421;SDS011;19763;55.798;37.782;2023-03-23T13:34:24;5.60;;;4.47;;
33421;SDS011;19763;55.798;37.782;2023-03-23T13:37:02;5.15;;;4.15;;
33421;SDS011;19763;55.798;37.782;2023-03-23T13:39:49;5.65;;;4.28;;
33421;SDS011;19763;55.798;37.782;2023-03-23T13:48:03;9.98;;;4.50;;
33421;SDS011;19763;55.798;37.782;2023-03-23T13:56:19;6.00;;;4.00;;
33421;SDS011;19763;55.798;37.782;2023-03-23T13:59:12;7.15;;;4.22;;
33421;SDS011;19763;55.798;37.782;2023-03-23T14:01:43;4.82;;;4.20;;
33421;SDS011;19763;55.798;37.782;2023-03-23T14:04:13;6.07;;;4.05;;
33421;SDS011;19763;55.798;37.782;2023-03-23T14:06:46;8.15;;;4.43;;
33421;SDS011;19763;55.798;37.782;2023-03-23T14:12:00;5.20;;;4.10;;
33421;SDS011;19763;55.798;37.782;2023-03-23T14:14:56;6.38;;;4.45;;
33421;SDS011;19763;55.798;37.782;2023-03-23T14:17:29;6.18;;;4.10;;
33421;SDS011;19763;55.798;37.782;2023-03-23T14:19:57;6.72;;;4.25;;
33421;SDS011;19763;55.798;37.782;2023-03-23T14:22:31;7.85;;;4.03;;
33421;SDS011;19763;55.798;37.782;2023-03-23T14:25:08;7.20;;;4.57;;
33421;SDS011;19763;55.798;37.782;2023-03-23T14:27:53;7.60;;;4.53;;
33421;SDS011;19763;55.798;37.782;2023-03-23T14:30:20;7.35;;;4.25;;
33421;SDS011;19763;55.798;37.782;2023-03-23T14:32:50;6.55;;;4.40;;
33421;SDS011;19763;55.798;37.782;2023-03-23T14:35:25;10.07;;;5.13;;
33421;SDS011;19763;55.798;37.782;2023-03-23T14:37:53;8.00;;;4.45;;
33421;SDS011;19763;55.798;37.782;2023-03-23T14:40:20;5.63;;;4.45;;
33421;SDS011;19763;55.798;37.782;2023-03-23T14:42:46;7.55;;;4.75;;
33421;SDS011;19763;55.798;37.782;2023-03-23T14:45:17;4.93;;;4.30;;
33421;SDS011;19763;55.798;37.782;2023-03-23T14:47:46;8.50;;;4.55;;
33421;SDS011;19763;55.798;37.782;2023-03-23T14:50:26;7.32;;;4.15;;
33421;SDS011;19763;55.798;37.782;2023-03-23T14:52:55;8.32;;;4.45;;
33421;SDS011;19763;55.798;37.782;2023-03-23T14:55:23;8.40;;;4.47;;
33421;SDS011;19763;55.798;37.782;2023-03-23T14:57:49;6.05;;;4.53;;
33421;SDS011;19763;55.798;37.782;2023-03-23T15:00:29;7.72;;;4.72;;
33421;SDS011;19763;55.798;37.782;2023-03-23T15:02:59;7.90;;;4.63;;
33421;SDS011;19763;55.798;37.782;2023-03-23T15:05:35;10.32;;;5.63;;
33421;SDS011;19763;55.798;37.782;2023-03-23T15:08:18;6.75;;;4.20;;
33421;SDS011;19763;55.798;37.782;2023-03-23T15:14:20;6.38;;;4.55;;
33421;SDS011;19763;55.798;37.782;2023-03-23T15:16:51;9.15;;;4.80;;
33421;SDS011;19763;55.798;37.782;2023-03-23T15:19:46;7.45;;;5.07;;
33421;SDS011;19763;55.798;37.782;2023-03-23T15:22:25;9.25;;;4.75;;
33421;SDS011;19763;55.798;37.782;2023-03-23T15:30:53;6.43;;;4.63;;
33421;SDS011;19763;55.798;37.782;2023-03-23T15:33:23;5.75;;;4.60;;
33421;SDS011;19763;55.798;37.782;2023-03-23T15:35:53;6.20;;;4.60;;
33421;SDS011;19763;55.798;37.782;2023-03-23T15:38:28;6.63;;;4.55;;
33421;SDS011;19763;55.798;37.782;2023-03-23T15:40:59;8.27;;;5.13;;
33421;SDS011;19763;55.798;37.782;2023-03-23T15:43:49;5.78;;;4.70;;
33421;SDS011;19763;55.798;37.782;2023-03-23T15:46:27;6.20;;;4.53;;
33421;SDS011;19763;55.798;37.782;2023-03-23T15:51:26;8.20;;;5.10;;
33421;SDS011;19763;55.798;37.782;2023-03-23T15:53:53;6.57;;;4.70;;
33421;SDS011;19763;55.798;37.782;2023-03-23T15:56:20;6.22;;;4.72;;
33421;SDS011;19763;55.798;37.782;2023-03-23T15:58:46;6.85;;;4.70;;
33421;SDS011;19763;55.798;37.782;2023-03-23T16:03:50;7.80;;;4.75;;
33421;SDS011;19763;55.798;37.782;2023-03-23T16:06:18;7.65;;;4.95;;
33421;SDS011;19763;55.798;37.782;2023-03-23T16:08:45;9.05;;;5.00;;
33421;SDS011;19763;55.798;37.782;2023-03-23T16:11:11;6.80;;;5.13;;
33421;SDS011;19763;55.798;37.782;2023-03-23T16:13:38;6.93;;;5.30;;
33421;SDS011;19763;55.798;37.782;2023-03-23T16:16:05;7.18;;;5.57;;
33421;SDS011;19763;55.798;37.782;2023-03-23T16:18:32;7.10;;;4.88;;
33421;SDS011;19763;55.798;37.782;2023-03-23T16:20:58;6.25;;;5.07;;
33421;SDS011;19763;55.798;37.782;2023-03-23T16:23:23;8.95;;;4.85;;
33421;SDS011;19763;55.798;37.782;2023-03-23T16:25:49;8.02;;;5.18;;
33421;SDS011;19763;55.798;37.782;2023-03-23T16:28:15;8.68;;;5.28;;
33421;SDS011;19763;55.798;37.782;2023-03-23T16:30:41;7.10;;;5.18;;
33421;SDS011;19763;55.798;37.782;2023-03-23T16:33:08;6.68;;;4.65;;
33421;SDS011;19763;55.798;37.782;2023-03-23T16:35:34;7.43;;;4.80;;
33421;SDS011;19763;55.798;37.782;2023-03-23T16:38:01;5.93;;;4.70;;
33421;SDS011;19763;55.798;37.782;2023-03-23T16:40:27;5.57;;;4.90;;
33421;SDS011;19763;55.798;37.782;2023-03-23T16:42:53;6.80;;;4.97;;
33421;SDS011;19763;55.798;37.782;2023-03-23T16:45:19;8.73;;;5.35;;
33421;SDS011;19763;55.798;37.782;2023-03-23T16:47:45;8.35;;;5.35;;
33421;SDS011;19763;55.798;37.782;2023-03-23T16:50:13;7.80;;;5.35;;
33421;SDS011;19763;55.798;37.782;2023-03-23T16:52:41;7.68;;;4.95;;
33421;SDS011;19763;55.798;37.782;2023-03-23T16:55:11;6.82;;;5.10;;
33421;SDS011;19763;55.798;37.782;2023-03-23T16:57:38;7.97;;;5.18;;
33421;SDS011;19763;55.798;37.782;2023-03-23T17:00:06;8.15;;;5.43;;
33421;SDS011;19763;55.798;37.782;2023-03-23T17:02:34;9.00;;;5.60;;
33421;SDS011;19763;55.798;37.782;2023-03-23T17:05:00;8.05;;;5.10;;
33421;SDS011;19763;55.798;37.782;2023-03-23T17:07:26;9.15;;;5.82;;
33421;SDS011;19763;55.798;37.782;2023-03-23T17:09:53;13.80;;;6.38;;